Hutchinson County Airport - Borger, Texas, United States - FAA: BGD - ICAO: KBGD - IATA: BGD

 
  Longest Runway: 6,300 feet   Approach Types:    Customs Landing Rights Airport: No   Port of Entry: No

Local Forecast

This Afternoon (10/21): Mostly sunny, with a high near 79. South wind 10 to 15 mph.

Tonight (10/21): Mostly cloudy, with a low around 57. South wind around 10 mph.

Wednesday (10/22): A 50 percent chance of showers and thunderstorms. Mostly cloudy, with a high near 69. South southwest wind 10 to 15 mph, with gusts as high as 20 mph.

Wednesday Night (10/22): A 30 percent chance of showers and thunderstorms before 1am. Mostly cloudy, with a low around 55. South wind around 10 mph.

Thursday (10/23): Mostly sunny, with a high near 78. Southwest wind 5 to 10 mph.

Thursday Night (10/23): Mostly clear, with a low around 53. Calm wind becoming southwest around 5 mph in the evening.

Friday (10/24): Sunny, with a high near 84. Southwest wind around 5 mph.



Current Weather (METAR)

2014/10/21 15:51 KBGD 211551Z AUTO VRB03KT 10SM BKN055 21/12 A3013 RMK AO2 SLP170 T02110117

BORGER HUTCHINSON CO AIRPORT , TX, United States (KBGD) 35-42N 101-24W 927M Oct 21, 2014 - 11:51 AM EDT / 2014.10.21 1551 UTC Wind: Variable at 3 MPH (3 KT):0 Visibility: 10 mile(s):0 Sky conditions: mostly cloudy Temperature: 70.0 F (21.1 C) Dew Point: 53.1 F (11.7 C) Relative Humidity: 54% Pressure (altimeter): 30.13 in. Hg (1020 hPa) ob: KBGD 211551Z AUTO VRB03KT 10SM BKN055 21/12 A3013 RMK AO2 SLP170 T02110117 cycle: 16

Terminal Forecast (TAF)